createdAt,value
2023-05-04T00:00:54.308Z,26.47
2023-05-04T00:03:23.000Z,21.07
2023-05-04T00:05:51.197Z,24.53
2023-05-04T00:08:20.749Z,27.17
2023-05-04T00:10:48.866Z,27.10
2023-05-04T00:13:16.930Z,24.50
2023-05-04T00:15:45.093Z,29.67
2023-05-04T00:18:13.307Z,24.03
2023-05-04T00:20:42.391Z,24.70
2023-05-04T00:23:10.518Z,25.70
2023-05-04T00:25:39.990Z,23.70
2023-05-04T00:28:08.175Z,20.87
2023-05-04T00:30:36.240Z,21.97
2023-05-04T00:33:04.354Z,25.50
2023-05-04T00:35:32.754Z,24.87
2023-05-04T00:38:00.895Z,24.80
2023-05-04T00:40:29.075Z,23.93
2023-05-04T00:42:58.636Z,24.97
2023-05-04T00:45:26.722Z,26.83
2023-05-04T00:47:55.402Z,27.13
2023-05-04T00:50:23.759Z,24.90
2023-05-04T00:52:54.018Z,25.10
2023-05-04T00:55:22.839Z,26.87
2023-05-04T00:57:51.993Z,28.27
2023-05-04T01:00:21.867Z,27.17
2023-05-04T01:02:50.813Z,27.00
2023-05-04T01:05:18.948Z,27.57
2023-05-04T01:07:57.566Z,28.00
2023-05-04T01:10:31.176Z,33.37
2023-05-04T01:13:06.583Z,26.43
2023-05-04T01:15:36.587Z,24.27
2023-05-04T01:18:04.909Z,27.10
2023-05-04T01:20:34.378Z,25.93
2023-05-04T01:23:04.400Z,24.80
2023-05-04T01:25:43.765Z,24.13
2023-05-04T01:28:18.734Z,25.73
2023-05-04T01:30:51.405Z,25.53
2023-05-04T01:33:21.210Z,22.97
2023-05-04T01:35:50.724Z,29.60
2023-05-04T01:38:20.196Z,28.97
2023-05-04T01:40:48.250Z,26.53
2023-05-04T01:43:16.294Z,27.70
2023-05-04T01:45:44.467Z,27.77
2023-05-04T01:48:12.480Z,27.33
2023-05-04T01:50:41.247Z,29.33
2023-05-04T01:53:09.332Z,30.07
2023-05-04T01:55:38.823Z,29.37
2023-05-04T01:58:06.808Z,32.17
2023-05-04T02:00:34.878Z,27.60
2023-05-04T02:03:03.151Z,30.30
2023-05-04T02:05:31.364Z,28.33
2023-05-04T02:07:59.480Z,26.30
2023-05-04T02:10:27.556Z,31.07
2023-05-04T02:12:57.308Z,26.90
2023-05-04T02:15:25.450Z,26.17
2023-05-04T02:17:53.557Z,28.73
2023-05-04T02:20:22.518Z,31.07
2023-05-04T02:22:50.526Z,32.70
2023-05-04T02:25:19.622Z,33.80
2023-05-04T02:27:47.718Z,27.10
2023-05-04T02:30:17.482Z,31.00
2023-05-04T02:32:45.639Z,29.37
2023-05-04T02:35:14.146Z,31.73
2023-05-04T02:37:42.314Z,33.40
2023-05-04T02:40:12.535Z,32.53
2023-05-04T02:42:40.588Z,29.90
2023-05-04T02:45:09.829Z,27.37
2023-05-04T02:47:39.339Z,30.03
2023-05-04T02:50:11.372Z,33.57
2023-05-04T02:52:39.558Z,30.67
2023-05-04T02:55:08.096Z,30.47
2023-05-04T02:57:36.351Z,31.87
2023-05-04T03:00:06.904Z,29.37
2023-05-04T03:02:35.875Z,31.43
2023-05-04T03:05:05.844Z,30.03
2023-05-04T03:07:33.960Z,29.87
2023-05-04T03:10:02.071Z,31.03
2023-05-04T03:12:30.189Z,30.17
2023-05-04T03:14:58.964Z,31.07
2023-05-04T03:17:27.054Z,30.57
2023-05-04T03:19:55.257Z,28.50
2023-05-04T03:22:25.328Z,33.20
2023-05-04T03:24:53.519Z,31.37
2023-05-04T03:27:21.647Z,29.93
2023-05-04T03:29:49.913Z,27.60
2023-05-04T03:32:18.118Z,25.57
2023-05-04T03:34:47.008Z,26.40
2023-05-04T03:37:15.148Z,26.37
2023-05-04T03:39:44.651Z,34.13
2023-05-04T03:42:13.236Z,39.50
2023-05-04T03:44:42.760Z,26.47
2023-05-04T03:47:10.890Z,33.30
2023-05-04T03:49:39.196Z,29.37
2023-05-04T03:52:07.452Z,29.13
2023-05-04T03:54:35.605Z,30.63
2023-05-04T03:57:05.631Z,30.63
2023-05-04T03:59:33.712Z,29.07
2023-05-04T04:02:02.156Z,26.73
2023-05-04T04:04:30.264Z,30.13
2023-05-04T04:06:58.271Z,31.10
2023-05-04T04:09:26.396Z,33.93
2023-05-04T04:11:54.563Z,29.47
2023-05-04T04:14:24.677Z,32.17
2023-05-04T04:16:52.876Z,33.57
2023-05-04T04:19:21.425Z,29.40
2023-05-04T04:21:50.313Z,33.10
2023-05-04T04:24:18.624Z,29.87
2023-05-04T04:26:46.999Z,31.23
2023-05-04T04:29:15.152Z,28.23
2023-05-04T04:31:44.691Z,27.13
2023-05-04T04:34:12.700Z,30.83
2023-05-04T04:36:40.810Z,35.93
2023-05-04T04:39:09.156Z,27.17
2023-05-04T04:41:37.275Z,25.83
2023-05-04T04:44:05.866Z,26.20
2023-05-04T04:46:34.108Z,25.97
2023-05-04T04:49:03.664Z,24.43
2023-05-04T04:51:31.885Z,32.30
2023-05-04T04:54:00.470Z,30.70
2023-05-04T04:56:28.675Z,26.93
2023-05-04T04:59:02.543Z,27.40
2023-05-04T05:01:31.612Z,29.53
2023-05-04T05:03:59.650Z,25.47
2023-05-04T05:06:29.199Z,27.07
2023-05-04T05:08:57.287Z,33.03
2023-05-04T05:11:25.485Z,30.83
2023-05-04T05:13:53.541Z,29.17
2023-05-04T05:16:21.795Z,31.90
2023-05-04T05:18:49.962Z,33.27
2023-05-04T05:21:18.538Z,30.13
2023-05-04T05:23:48.228Z,32.53
2023-05-04T05:26:16.445Z,25.57
2023-05-04T05:28:44.649Z,29.73
2023-05-04T05:31:12.806Z,29.97
2023-05-04T05:33:41.967Z,31.67
2023-05-04T05:36:10.356Z,28.73
2023-05-04T05:38:38.661Z,26.83
2023-05-04T05:41:09.816Z,26.50
2023-05-04T05:43:39.073Z,27.27
2023-05-04T05:46:08.132Z,31.53
2023-05-04T05:48:36.346Z,24.97
2023-05-04T05:51:04.969Z,22.60
2023-05-04T05:53:33.099Z,25.00
2023-05-04T05:56:01.322Z,27.07
2023-05-04T05:58:30.895Z,26.77
2023-05-04T06:00:59.280Z,29.47
2023-05-04T06:03:28.037Z,24.17
2023-05-04T06:05:56.578Z,24.63
2023-05-04T06:08:24.645Z,28.50
2023-05-04T06:10:54.667Z,28.60
2023-05-04T06:13:22.836Z,27.03
2023-05-04T06:15:56.384Z,28.97
2023-05-04T06:18:24.905Z,26.23
2023-05-04T06:20:59.606Z,33.13
2023-05-04T06:23:29.338Z,26.67
2023-05-04T06:25:57.462Z,28.37
2023-05-04T06:28:25.820Z,27.33
2023-05-04T06:30:55.725Z,25.20
2023-05-04T06:33:24.216Z,27.13
2023-05-04T06:35:53.222Z,25.80
2023-05-04T06:38:21.992Z,29.07
2023-05-04T06:40:50.282Z,28.70
2023-05-04T06:43:18.522Z,32.07
2023-05-04T06:45:46.821Z,38.77
2023-05-04T06:48:17.211Z,41.20
2023-05-04T06:50:45.414Z,35.73
2023-05-04T06:53:13.539Z,33.33
2023-05-04T06:55:41.568Z,35.13
2023-05-04T06:58:09.660Z,30.87
2023-05-04T07:00:38.065Z,35.83
2023-05-04T07:03:09.471Z,42.90
2023-05-04T07:05:39.657Z,34.83
2023-05-04T07:08:08.146Z,37.83
2023-05-04T07:10:37.779Z,26.53
2023-05-04T07:13:06.084Z,41.80
2023-05-04T07:15:34.884Z,33.40
2023-05-04T07:18:03.000Z,39.90
2023-05-04T07:20:31.703Z,31.80
2023-05-04T07:23:01.235Z,31.00
2023-05-04T07:25:32.369Z,31.30
2023-05-04T07:28:01.187Z,36.63
2023-05-04T07:30:32.419Z,34.23
2023-05-04T07:33:00.809Z,30.13
2023-05-04T07:35:29.440Z,34.70
2023-05-04T07:37:58.151Z,36.63
2023-05-04T07:40:28.584Z,43.30
2023-05-04T07:42:57.792Z,34.30
2023-05-04T07:45:26.849Z,35.53
2023-05-04T07:47:55.550Z,28.57
2023-05-04T07:50:23.877Z,36.80
2023-05-04T07:52:52.827Z,35.07
2023-05-04T07:55:21.102Z,35.77
2023-05-04T07:57:50.831Z,30.27
2023-05-04T08:00:20.265Z,30.90
2023-05-04T08:02:48.590Z,29.07
2023-05-04T08:05:17.017Z,28.67
2023-05-04T08:07:46.341Z,29.33
2023-05-04T08:10:14.441Z,21.60
2023-05-04T08:12:43.821Z,31.23
2023-05-04T08:15:14.860Z,28.80
2023-05-04T08:17:44.214Z,22.27
2023-05-04T08:20:13.858Z,20.07
2023-05-04T08:22:41.967Z,21.47
2023-05-04T08:25:10.701Z,25.67
2023-05-04T08:27:38.830Z,27.63
2023-05-04T08:30:08.640Z,25.33
2023-05-04T08:32:38.176Z,27.93
2023-05-04T08:35:07.312Z,28.67
2023-05-04T08:37:35.658Z,30.00
2023-05-04T08:40:04.879Z,28.40
2023-05-04T08:42:34.762Z,32.63
2023-05-04T08:45:03.129Z,32.47
2023-05-04T08:47:31.346Z,25.97
2023-05-04T08:50:01.153Z,30.73
2023-05-04T08:52:29.763Z,31.27
2023-05-04T08:54:59.702Z,25.97
2023-05-04T08:57:28.532Z,29.93
2023-05-04T08:59:58.062Z,33.53
2023-05-04T09:02:27.461Z,33.10
2023-05-04T09:04:55.740Z,31.40
2023-05-04T09:07:25.328Z,35.90
2023-05-04T09:09:54.068Z,38.00
2023-05-04T09:12:22.213Z,37.63
2023-05-04T09:14:50.464Z,28.37
2023-05-04T09:17:25.798Z,31.47
2023-05-04T09:20:02.366Z,31.77
2023-05-04T09:22:32.335Z,30.73
2023-05-04T09:25:11.847Z,34.17
2023-05-04T09:27:41.870Z,32.17
2023-05-04T09:30:11.423Z,33.40
2023-05-04T09:32:47.354Z,33.10
2023-05-04T09:35:29.145Z,32.40
2023-05-04T09:38:01.854Z,32.27
2023-05-04T09:40:33.795Z,37.23
2023-05-04T09:43:02.161Z,33.80
2023-05-04T09:45:41.333Z,33.93
2023-05-04T09:48:20.504Z,36.80
2023-05-04T09:50:57.113Z,34.67
2023-05-04T09:53:28.132Z,38.70
2023-05-04T09:56:08.496Z,37.27
2023-05-04T09:58:37.075Z,39.30
2023-05-04T10:01:06.218Z,34.20
2023-05-04T10:03:34.507Z,32.30
2023-05-04T10:06:05.850Z,36.67
2023-05-04T10:08:35.696Z,38.23
2023-05-04T10:11:03.762Z,44.37
2023-05-04T10:13:31.903Z,41.17
2023-05-04T10:16:16.366Z,43.27
2023-05-04T10:19:05.419Z,41.70
2023-05-04T10:21:45.417Z,44.93
2023-05-04T10:24:38.464Z,37.03
2023-05-04T10:27:12.114Z,42.50
2023-05-04T10:29:41.259Z,39.37
2023-05-04T10:32:20.086Z,37.73
2023-05-04T10:34:48.482Z,34.23
2023-05-04T10:37:22.308Z,40.10
2023-05-04T10:39:55.328Z,41.83
2023-05-04T10:42:23.686Z,44.37
2023-05-04T10:44:55.228Z,39.67
2023-05-04T10:47:32.639Z,40.53
2023-05-04T10:50:05.633Z,43.80
2023-05-04T10:52:34.313Z,40.92
2023-05-04T10:55:07.304Z,38.95
2023-05-04T10:57:35.620Z,33.70
2023-05-04T11:00:04.488Z,29.10
2023-05-04T11:02:34.289Z,31.52
2023-05-04T11:05:04.552Z,31.63
2023-05-04T11:07:37.966Z,35.60
2023-05-04T11:10:09.807Z,35.38
2023-05-04T11:12:39.802Z,32.90
2023-05-04T11:15:11.316Z,32.25
2023-05-04T11:17:47.640Z,33.38
2023-05-04T11:20:23.726Z,34.40
2023-05-04T11:22:53.118Z,31.27
2023-05-04T11:25:30.088Z,29.20
2023-05-04T11:28:00.876Z,33.25
2023-05-04T11:30:33.769Z,33.88
2023-05-04T11:33:03.058Z,30.20
2023-05-04T11:35:31.324Z,30.48
2023-05-04T11:37:59.605Z,27.55
2023-05-04T11:40:29.225Z,31.20
2023-05-04T11:42:59.893Z,27.67
2023-05-04T11:45:31.059Z,29.35
2023-05-04T11:47:59.662Z,30.20
2023-05-04T11:50:29.204Z,29.95
2023-05-04T11:53:06.824Z,31.55
2023-05-04T11:55:37.574Z,31.27
2023-05-04T11:58:07.206Z,30.27
2023-05-04T12:00:38.924Z,32.22
2023-05-04T12:03:08.361Z,30.90
2023-05-04T12:05:38.027Z,32.03
2023-05-04T12:08:07.594Z,31.20
2023-05-04T12:10:37.181Z,29.73
2023-05-04T12:13:16.275Z,33.10
2023-05-04T12:15:45.108Z,31.17
2023-05-04T12:18:22.205Z,29.20
2023-05-04T12:20:51.310Z,32.45
2023-05-04T12:23:19.550Z,34.25
2023-05-04T12:25:57.709Z,30.83
2023-05-04T12:28:27.853Z,34.60
2023-05-04T12:30:56.527Z,34.25
2023-05-04T12:33:24.818Z,35.00
2023-05-04T12:35:53.769Z,32.72
2023-05-04T12:38:22.022Z,32.83
2023-05-04T12:40:52.385Z,31.23
2023-05-04T12:43:23.160Z,35.25
2023-05-04T12:45:51.958Z,36.03
2023-05-04T12:48:21.658Z,32.17
2023-05-04T12:50:51.105Z,30.25
2023-05-04T12:53:21.948Z,37.80
2023-05-04T12:55:51.530Z,35.10
2023-05-04T12:58:19.885Z,32.60
2023-05-04T13:00:48.066Z,34.55
2023-05-04T13:03:17.836Z,30.63
2023-05-04T13:05:47.400Z,27.70
2023-05-04T13:08:15.578Z,29.20
2023-05-04T13:10:43.738Z,29.92
2023-05-04T13:13:13.388Z,32.53
2023-05-04T13:15:41.881Z,30.42
2023-05-04T13:18:10.067Z,33.33
2023-05-04T13:20:39.649Z,33.75
2023-05-04T13:23:08.257Z,32.47
2023-05-04T13:25:38.766Z,31.55
2023-05-04T13:28:07.109Z,30.73
2023-05-04T13:30:36.790Z,36.83
2023-05-04T13:33:16.784Z,29.52
2023-05-04T13:35:57.068Z,31.77
2023-05-04T13:38:25.570Z,29.55
2023-05-04T13:40:54.299Z,32.90
2023-05-04T13:43:23.259Z,30.65
2023-05-04T13:45:53.528Z,31.65
2023-05-04T13:48:21.635Z,30.85
2023-05-04T13:50:49.670Z,32.63
2023-05-04T13:53:17.846Z,28.90
2023-05-04T13:55:46.216Z,31.55
2023-05-04T13:58:14.279Z,31.30
2023-05-04T14:00:43.372Z,30.98
2023-05-04T14:03:13.145Z,34.60
2023-05-04T14:05:41.915Z,36.22
2023-05-04T14:08:10.014Z,34.83
2023-05-04T14:10:38.522Z,33.08
2023-05-04T14:13:07.592Z,34.50
2023-05-04T14:15:36.802Z,36.88
2023-05-04T14:18:05.237Z,35.83
2023-05-04T14:20:35.267Z,39.05
2023-05-04T14:23:03.321Z,34.90
2023-05-04T14:25:31.514Z,33.60
2023-05-04T14:27:59.753Z,34.78
2023-05-04T14:30:27.969Z,31.00
2023-05-04T14:32:57.320Z,31.13
2023-05-04T14:35:25.698Z,32.53
2023-05-04T14:37:55.221Z,29.08
2023-05-04T14:40:23.378Z,33.72
2023-05-04T14:42:51.812Z,36.03
2023-05-04T14:45:20.475Z,37.38
2023-05-04T14:47:48.589Z,34.60
2023-05-04T14:50:16.697Z,34.75
2023-05-04T14:52:45.042Z,34.85
2023-05-04T14:55:15.676Z,31.73
2023-05-04T14:57:44.097Z,32.80
2023-05-04T15:00:13.534Z,32.10
2023-05-04T15:02:41.810Z,31.48
2023-05-04T15:05:12.694Z,41.03
2023-05-04T15:07:41.028Z,32.40
2023-05-04T15:10:10.618Z,34.40
2023-05-04T15:12:41.203Z,31.38
2023-05-04T15:15:10.309Z,28.20
2023-05-04T15:17:38.486Z,28.73
2023-05-04T15:20:07.943Z,28.45
2023-05-04T15:22:36.754Z,29.60
2023-05-04T15:25:05.781Z,27.75
2023-05-04T15:27:33.924Z,25.77
2023-05-04T15:30:03.569Z,27.35
2023-05-04T15:32:31.913Z,28.30
2023-05-04T15:35:05.489Z,28.65
2023-05-04T15:37:34.379Z,27.13
2023-05-04T15:40:03.786Z,26.60
2023-05-04T15:42:32.042Z,26.83
2023-05-04T15:45:00.217Z,24.48
2023-05-04T15:47:29.758Z,28.38
2023-05-04T15:49:59.050Z,26.88
2023-05-04T15:52:27.248Z,29.30
2023-05-04T15:54:56.340Z,26.80
2023-05-04T15:57:24.579Z,26.15
2023-05-04T15:59:52.740Z,28.23
2023-05-04T16:02:21.020Z,31.23
2023-05-04T16:04:50.614Z,30.63
2023-05-04T16:07:18.657Z,30.55
2023-05-04T16:09:47.129Z,25.92
2023-05-04T16:12:15.637Z,28.77
2023-05-04T16:14:43.990Z,31.30
2023-05-04T16:17:12.183Z,30.63
2023-05-04T16:19:40.202Z,33.97
2023-05-04T16:22:09.736Z,38.35
2023-05-04T16:24:38.195Z,32.83
2023-05-04T16:27:07.024Z,29.63
2023-05-04T16:29:35.236Z,32.20
2023-05-04T16:32:03.634Z,33.28
2023-05-04T16:34:31.834Z,29.38
2023-05-04T16:37:00.000Z,29.88
2023-05-04T16:39:31.754Z,26.52
2023-05-04T16:42:00.186Z,29.52
2023-05-04T16:44:28.489Z,28.15
2023-05-04T16:46:56.574Z,26.80
2023-05-04T16:49:24.648Z,27.05
2023-05-04T16:51:53.704Z,26.42
2023-05-04T16:54:22.135Z,31.45
2023-05-04T16:56:52.217Z,24.08
2023-05-04T16:59:20.420Z,25.92
2023-05-04T17:01:48.841Z,27.40
2023-05-04T17:04:17.222Z,29.83
2023-05-04T17:06:45.620Z,24.40
2023-05-04T17:09:13.755Z,23.57
2023-05-04T17:11:41.833Z,27.50
2023-05-04T17:14:11.737Z,27.57
2023-05-04T17:16:40.375Z,29.85
2023-05-04T17:19:11.028Z,29.20
2023-05-04T17:21:39.947Z,25.87
2023-05-04T17:24:09.791Z,23.63
2023-05-04T17:26:37.869Z,27.02
2023-05-04T17:29:06.367Z,26.77
2023-05-04T17:31:35.960Z,29.53
2023-05-04T17:34:04.180Z,30.17
2023-05-04T17:36:32.721Z,30.02
2023-05-04T17:39:00.996Z,29.00
2023-05-04T17:41:29.086Z,30.90
2023-05-04T17:43:57.281Z,27.05
2023-05-04T17:46:26.092Z,30.23
2023-05-04T17:48:56.694Z,33.10
2023-05-04T17:51:29.018Z,31.47
2023-05-04T17:54:12.154Z,31.47
2023-05-04T17:56:40.565Z,29.73
2023-05-04T17:59:08.924Z,34.73
2023-05-04T18:01:37.460Z,37.23
2023-05-04T18:04:07.157Z,36.00
2023-05-04T18:06:35.419Z,37.93
2023-05-04T18:09:04.928Z,32.17
2023-05-04T18:11:33.336Z,35.13
2023-05-04T18:14:02.099Z,32.07
2023-05-04T18:16:33.044Z,33.50
2023-05-04T18:19:01.308Z,31.33
2023-05-04T18:21:32.008Z,35.63
2023-05-04T18:24:04.205Z,34.37
2023-05-04T18:26:33.126Z,34.47
2023-05-04T18:29:11.610Z,36.10
2023-05-04T18:31:47.478Z,37.33
2023-05-04T18:34:17.172Z,37.93
2023-05-04T18:36:48.693Z,37.97
2023-05-04T18:39:17.696Z,36.27
2023-05-04T18:41:46.272Z,46.13
2023-05-04T18:44:15.207Z,38.43
2023-05-04T18:46:43.321Z,38.13
2023-05-04T18:49:11.568Z,40.70
2023-05-04T18:51:41.806Z,39.20
2023-05-04T18:54:17.686Z,37.50
2023-05-04T18:56:45.836Z,35.88
2023-05-04T18:59:14.129Z,38.20
2023-05-04T19:01:42.436Z,36.67
2023-05-04T19:04:10.516Z,40.57
2023-05-04T19:06:38.669Z,39.80
2023-05-04T19:09:08.249Z,43.13
2023-05-04T19:11:37.785Z,45.97
2023-05-04T19:14:06.041Z,41.00
2023-05-04T19:16:36.864Z,42.47
2023-05-04T19:19:05.433Z,44.57
2023-05-04T19:21:33.726Z,54.70
2023-05-04T19:24:02.087Z,47.20
2023-05-04T19:26:30.152Z,43.77
2023-05-04T19:28:59.829Z,43.27
2023-05-04T19:31:27.945Z,37.10
2023-05-04T19:33:56.273Z,40.43
2023-05-04T19:36:25.191Z,38.30
2023-05-04T19:38:53.578Z,38.57
2023-05-04T19:41:22.336Z,38.63
2023-05-04T19:43:50.468Z,38.97
2023-05-04T19:46:20.737Z,38.20
2023-05-04T19:48:52.851Z,33.53
2023-05-04T19:51:21.210Z,31.37
2023-05-04T19:53:49.423Z,33.15
2023-05-04T19:56:17.702Z,31.93
2023-05-04T19:58:48.931Z,29.47
2023-05-04T20:01:17.178Z,31.53
2023-05-04T20:03:47.562Z,30.67
2023-05-04T20:06:16.023Z,26.23
2023-05-04T20:08:44.404Z,26.17
2023-05-04T20:11:14.838Z,25.80
2023-05-04T20:13:45.386Z,25.67
2023-05-04T20:16:14.228Z,23.87
2023-05-04T20:18:42.692Z,24.03
2023-05-04T20:21:15.122Z,23.27
2023-05-04T20:23:45.741Z,23.00
2023-05-04T20:26:15.096Z,22.60
2023-05-04T20:28:44.927Z,21.00
2023-05-04T20:31:13.916Z,20.97
2023-05-04T20:33:42.354Z,21.47
2023-05-04T20:36:12.870Z,21.33
2023-05-04T20:38:41.917Z,23.30
2023-05-04T20:41:27.714Z,22.23
2023-05-04T20:43:55.927Z,23.53
2023-05-04T20:46:24.520Z,22.83
2023-05-04T20:48:52.703Z,22.93
2023-05-04T20:51:23.069Z,22.93
2023-05-04T20:53:51.750Z,22.97
2023-05-04T20:56:20.897Z,23.17
2023-05-04T20:58:49.856Z,21.30
2023-05-04T21:01:25.124Z,23.93
2023-05-04T21:03:55.027Z,22.80
2023-05-04T21:06:26.218Z,23.53
2023-05-04T21:08:54.501Z,21.70
2023-05-04T21:11:22.627Z,23.03
2023-05-04T21:13:50.801Z,23.67
2023-05-04T21:16:19.234Z,22.70
2023-05-04T21:18:47.374Z,22.43
2023-05-04T21:21:16.175Z,21.60
2023-05-04T21:23:46.198Z,25.60
2023-05-04T21:26:14.388Z,21.57
2023-05-04T21:28:42.684Z,24.17
2023-05-04T21:31:11.344Z,22.13
2023-05-04T21:33:39.554Z,24.03
2023-05-04T21:36:14.822Z,24.03
2023-05-04T21:38:43.525Z,22.63
2023-05-04T21:41:14.527Z,20.43
2023-05-04T21:43:43.123Z,23.23
2023-05-04T21:46:12.201Z,21.87
2023-05-04T21:48:40.894Z,24.37
2023-05-04T21:51:09.480Z,26.97
2023-05-04T21:53:37.658Z,37.07
2023-05-04T21:56:08.896Z,35.13
2023-05-04T21:58:40.686Z,26.37
2023-05-04T22:01:09.666Z,21.30
2023-05-04T22:03:38.126Z,20.57
2023-05-04T22:06:06.834Z,20.07
2023-05-04T22:08:34.981Z,21.93
2023-05-04T22:11:03.250Z,26.10
2023-05-04T22:13:31.474Z,24.03
2023-05-04T22:16:00.929Z,21.37
2023-05-04T22:18:29.144Z,25.07
2023-05-04T22:20:57.388Z,23.43
2023-05-04T22:23:25.760Z,21.57
2023-05-04T22:25:53.970Z,39.90
2023-05-04T22:28:22.237Z,35.20
2023-05-04T22:30:50.577Z,29.70
2023-05-04T22:33:20.056Z,37.70
2023-05-04T22:35:48.069Z,35.97
2023-05-04T22:38:16.331Z,33.90
2023-05-04T22:40:44.390Z,35.70
2023-05-04T22:43:12.488Z,35.77
2023-05-04T22:45:41.240Z,29.07
2023-05-04T22:48:10.547Z,23.03
2023-05-04T22:50:40.049Z,26.43
2023-05-04T22:53:08.410Z,22.57
2023-05-04T22:55:36.528Z,20.57
2023-05-04T22:58:04.678Z,20.20
2023-05-04T23:00:32.907Z,24.83
2023-05-04T23:03:01.255Z,20.73
2023-05-04T23:05:29.509Z,22.03
2023-05-04T23:07:59.050Z,17.70
2023-05-04T23:10:28.033Z,21.83
2023-05-04T23:12:56.261Z,17.33
2023-05-04T23:15:26.037Z,20.97
2023-05-04T23:17:54.063Z,20.70
2023-05-04T23:20:22.459Z,18.63
2023-05-04T23:22:50.989Z,23.03
2023-05-04T23:25:20.667Z,22.97
2023-05-04T23:27:48.719Z,20.43
2023-05-04T23:30:18.284Z,20.47
2023-05-04T23:32:46.349Z,20.57
2023-05-04T23:35:15.065Z,17.90
2023-05-04T23:37:43.030Z,20.50
2023-05-04T23:40:12.374Z,19.63
2023-05-04T23:42:41.806Z,23.20
2023-05-04T23:45:10.879Z,31.03
2023-05-04T23:47:39.090Z,38.47
2023-05-04T23:50:08.531Z,32.63
2023-05-04T23:52:36.733Z,27.00
2023-05-04T23:55:05.757Z,24.27
2023-05-04T23:57:33.782Z,26.73
